Atwood, CA (92811)

4:09 AM PST on December 05, 2016 (GMT -0800)
Richfield Pines - North | | Change Station

Elev 305 ft 33.88 °N, 117.82 °W | Updated 10 seconds ago

Scattered Clouds
Scattered Clouds
39.5 °F
Feels Like 40 °F
N
0.0
Wind Variable Wind from East

Today
High -- | Low -- °F
--% Chance of Precip.
Yesterday
High -- | Low -- °F
Precip. -- in
Pressure 29.94 in
Visibility 10.0 miles
Clouds Scattered Clouds 800 ft
Windchill 40 °F
Dew Point 39 °F
Humidity 98%
Rainfall 0.00 in
Snow Depth Not available.
6:42 AM 4:42 PM
Waxing Crescent, 31% visible
SPECI KFUL 051204Z AUTO 00000KT 10SM SCT008 09/M02 A2994 RMK AO2 T00891017
Pressure 29.94 in
Visibility 10.0 miles
Clouds Scattered Clouds 800 ft
Windchill 40 °F
Dew Point 39 °F
Humidity 98%
Rainfall 0.00 in
Snow Depth Not available.
6:42 AM 4:42 PM
Waxing Crescent, 31% visible
SPECI KFUL 051204Z AUTO 00000KT 10SM SCT008 09/M02 A2994 RMK AO2 T00891017

10-Day Weather Forecast

Almanac

Astronomy

Dec. 05, 2016 Rise Set
Actual Time
Civil Twilight
Nautical Twilight
Astronomical Twilight
Moon
Length of Visible Light
Length of Day
Tomorrow will be .
, % of the Moon is Illuminated

Today's Extremes

State Highs State Lows

Community

WunderPhotos

Upload Photos

1,955,779 photos uploaded!

WunderBlog® & News

Nearby

Air Quality

  Air Quality AQ Index Pollutant
Not available.

Snow Depth

Station Depth Elevation

Earthquake Activity

City Distance Mag. Time & Date
Minimum magnitude displayed is 2.5.

Coastal Water Temperatures

Place Temperature

Stations

Nearby Weather Stations

Station Location Temp. Windchill Dew Point Humidity Wind Precip. Elev Updated Type
                   

Watches & Warnings

There are currently no watches in effect.